createdAt,value
2019-03-31T00:01:41.456Z,97883.92
2019-03-31T00:04:08.675Z,97881.73
2019-03-31T00:06:36.189Z,97881.14
2019-03-31T00:09:05.337Z,97881.31
2019-03-31T00:11:32.589Z,97873.64
2019-03-31T00:13:59.765Z,97878.66
2019-03-31T00:16:27.144Z,97875.62
2019-03-31T00:18:54.475Z,97879.88
2019-03-31T00:21:21.654Z,97881.09
2019-03-31T00:23:48.766Z,97877.03
2019-03-31T00:26:15.941Z,97882.87
2019-03-31T00:28:43.089Z,97885.78
2019-03-31T00:31:21.597Z,97882.22
2019-03-31T00:33:39.494Z,97881.56
2019-03-31T00:36:06.679Z,97885.23
2019-03-31T00:38:33.862Z,97886.44
2019-03-31T00:41:01.228Z,97892.56
2019-03-31T00:43:28.459Z,97879.32
2019-03-31T00:45:55.662Z,97890.23
2019-03-31T00:48:23.047Z,97890.69
2019-03-31T00:50:50.244Z,97891.66
2019-03-31T00:53:17.440Z,97890.78
2019-03-31T00:55:44.631Z,97894.73
2019-03-31T00:58:11.912Z,97892.80
2019-03-31T01:01:10.604Z,97893.25
2019-03-31T01:03:38.952Z,97889.71
2019-03-31T01:06:06.215Z,97890.46
2019-03-31T01:08:33.996Z,97892.39
2019-03-31T01:11:06.272Z,97888.82
2019-03-31T01:13:33.994Z,97886.06
2019-03-31T01:16:01.484Z,97884.65
2019-03-31T01:18:28.849Z,97881.89
2019-03-31T01:20:56.143Z,97885.03
2019-03-31T01:23:23.318Z,97887.34
2019-03-31T01:25:50.779Z,97885.94
2019-03-31T01:28:17.951Z,97890.71
2019-03-31T01:30:45.143Z,97887.16
2019-03-31T01:33:12.396Z,97886.56
2019-03-31T01:35:39.795Z,97884.86
2019-03-31T01:38:06.990Z,97884.26
2019-03-31T01:40:34.281Z,97887.69
2019-03-31T01:43:01.642Z,97881.43
2019-03-31T01:45:28.848Z,97886.42
2019-03-31T01:47:56.076Z,97881.73
2019-03-31T01:50:24.080Z,97885.16
2019-03-31T01:52:51.248Z,97880.53
2019-03-31T01:55:18.473Z,97879.38
2019-03-31T01:57:45.780Z,97880.34
2019-03-31T02:00:26.074Z,97881.61
2019-03-31T02:02:53.245Z,97882.05
2019-03-31T02:05:20.520Z,97881.16
2019-03-31T02:07:47.768Z,97878.92
2019-03-31T02:10:14.911Z,97881.00
2019-03-31T02:12:43.176Z,97876.91
2019-03-31T02:15:10.512Z,97876.26
2019-03-31T02:17:37.720Z,97874.54
2019-03-31T02:20:05.181Z,97870.95
2019-03-31T02:22:32.374Z,97870.58
2019-03-31T02:24:59.685Z,97874.53
2019-03-31T02:27:26.793Z,97870.12
2019-03-31T02:29:54.045Z,97865.20
2019-03-31T02:32:23.918Z,97870.70
2019-03-31T02:34:50.464Z,97869.02
2019-03-31T02:37:17.657Z,97869.98
2019-03-31T02:39:46.818Z,97866.70
2019-03-31T02:42:14.277Z,97869.60
2019-03-31T02:44:41.464Z,97865.72
2019-03-31T02:47:08.704Z,97862.95
2019-03-31T02:49:36.026Z,97861.53
2019-03-31T02:52:03.231Z,97861.16
2019-03-31T02:54:30.531Z,97857.88
2019-03-31T02:56:57.826Z,97864.52
2019-03-31T02:59:25.100Z,97865.78
2019-03-31T03:01:52.380Z,97861.67
2019-03-31T03:04:19.590Z,97864.80
2019-03-31T03:06:47.101Z,97862.86
2019-03-31T03:09:15.081Z,97862.47
2019-03-31T03:11:44.046Z,97861.34
2019-03-31T03:14:12.169Z,97859.11
2019-03-31T03:16:39.438Z,97863.64
2019-03-31T03:19:06.643Z,97863.34
2019-03-31T03:21:33.828Z,97861.70
2019-03-31T03:24:01.061Z,97870.78
2019-03-31T03:26:28.409Z,97865.06
2019-03-31T03:28:55.547Z,97860.36
2019-03-31T03:31:22.960Z,97864.30
2019-03-31T03:33:50.197Z,97869.05
2019-03-31T03:36:17.492Z,97867.11
2019-03-31T03:38:44.787Z,97865.68
2019-03-31T03:41:12.106Z,97866.94
2019-03-31T03:43:54.158Z,97864.69
2019-03-31T03:46:08.584Z,97868.63
2019-03-31T03:48:35.887Z,97866.63
2019-03-31T03:51:03.189Z,97864.67
2019-03-31T03:53:30.402Z,97870.55
2019-03-31T03:55:57.667Z,97863.08
2019-03-31T03:58:24.881Z,97868.52
2019-03-31T04:00:52.109Z,97870.38
2019-03-31T04:03:29.921Z,97868.43
2019-03-31T04:05:49.859Z,97870.80
2019-03-31T04:08:17.053Z,97864.02
2019-03-31T04:11:11.211Z,97866.70
2019-03-31T04:13:38.418Z,97870.93
2019-03-31T04:16:05.582Z,97868.38
2019-03-31T04:18:32.799Z,97869.41
2019-03-31T04:21:01.037Z,97866.95
2019-03-31T04:23:28.230Z,97872.00
2019-03-31T04:25:55.412Z,97870.06
2019-03-31T04:28:22.686Z,97866.50
2019-03-31T04:30:49.787Z,97863.52
2019-03-31T04:33:17.019Z,97866.93
2019-03-31T04:35:44.189Z,97868.78
2019-03-31T04:38:11.256Z,97873.84
2019-03-31T04:40:38.499Z,97872.92
2019-03-31T04:43:05.973Z,97877.16
2019-03-31T04:45:33.132Z,97874.69
2019-03-31T04:48:00.404Z,97879.73
2019-03-31T04:50:27.828Z,97874.59
2019-03-31T04:52:55.038Z,97873.78
2019-03-31T04:55:22.373Z,97877.48
2019-03-31T04:57:49.766Z,97874.51
2019-03-31T05:00:16.928Z,97878.52
2019-03-31T05:02:44.177Z,97880.17
2019-03-31T05:05:11.351Z,97881.20
2019-03-31T05:07:40.515Z,97881.50
2019-03-31T05:10:07.855Z,97884.79
2019-03-31T05:12:35.080Z,97889.33
2019-03-31T05:15:02.401Z,97898.48
2019-03-31T05:17:29.630Z,97893.95
2019-03-31T05:19:56.837Z,97896.92
2019-03-31T05:22:24.038Z,97901.03
2019-03-31T05:24:51.256Z,97900.30
2019-03-31T05:27:18.494Z,97899.06
2019-03-31T05:29:45.718Z,97902.12
2019-03-31T05:32:13.043Z,97907.12
2019-03-31T05:34:40.219Z,97905.44
2019-03-31T05:37:07.576Z,97911.80
2019-03-31T05:39:34.796Z,97870.00
2019-03-31T05:42:03.045Z,97914.98
2019-03-31T05:44:30.426Z,97914.73
2019-03-31T05:46:57.646Z,97912.61
2019-03-31T05:49:26.125Z,97905.92
2019-03-31T05:51:53.404Z,97901.72
2019-03-31T05:54:20.646Z,97909.33
2019-03-31T05:56:47.922Z,97912.86
2019-03-31T05:59:15.301Z,97916.48
2019-03-31T06:01:42.507Z,97914.91
2019-03-31T06:04:09.817Z,97915.83
2019-03-31T06:06:37.363Z,97919.17
2019-03-31T06:09:05.919Z,97909.12
2019-03-31T06:11:33.174Z,97912.75
2019-03-31T06:14:00.336Z,97916.97
2019-03-31T06:16:27.801Z,97920.69
2019-03-31T06:18:55.096Z,97914.96
2019-03-31T06:21:22.325Z,97915.94
2019-03-31T06:23:49.488Z,97919.92
2019-03-31T06:26:16.765Z,97919.30
2019-03-31T06:28:44.016Z,97913.94
2019-03-31T06:31:11.520Z,97909.25
2019-03-31T06:33:38.840Z,97914.58
2019-03-31T06:36:06.043Z,97915.34
2019-03-31T06:38:33.283Z,97910.13
2019-03-31T06:41:00.564Z,97913.27
2019-03-31T06:43:27.941Z,97919.32
2019-03-31T06:45:55.341Z,97916.20
2019-03-31T06:48:22.566Z,97912.70
2019-03-31T06:50:49.944Z,97921.61
2019-03-31T06:53:17.392Z,97915.70
2019-03-31T06:55:44.586Z,97917.06
2019-03-31T06:58:11.833Z,97913.55
2019-03-31T07:00:39.245Z,97920.02
2019-03-31T07:03:06.619Z,97916.97
2019-03-31T07:05:33.897Z,97921.20
2019-03-31T07:08:01.199Z,97925.20
2019-03-31T07:10:28.589Z,97924.34
2019-03-31T07:12:55.776Z,97925.88
2019-03-31T07:15:23.439Z,97922.33
2019-03-31T07:17:50.879Z,97925.19
2019-03-31T07:20:18.192Z,97922.34
2019-03-31T07:22:45.465Z,97920.09
2019-03-31T07:25:14.375Z,97912.89
2019-03-31T07:27:41.629Z,97909.93
2019-03-31T07:30:09.721Z,97910.52
2019-03-31T07:32:38.548Z,97913.22
2019-03-31T07:35:17.928Z,97917.58
2019-03-31T07:37:46.640Z,97914.30
2019-03-31T07:40:08.770Z,97914.30
2019-03-31T07:42:35.954Z,97906.42
2019-03-31T07:45:03.865Z,97908.04
2019-03-31T07:47:31.065Z,97911.52
2019-03-31T07:49:58.409Z,97909.25
2019-03-31T07:52:25.714Z,97908.37
2019-03-31T07:54:54.131Z,97905.82
2019-03-31T07:57:22.344Z,97900.95
2019-03-31T07:59:49.698Z,97897.00
2019-03-31T08:02:16.895Z,97900.73
2019-03-31T08:04:44.123Z,97891.59
2019-03-31T08:07:11.414Z,97898.10
2019-03-31T08:09:38.772Z,97897.19
2019-03-31T08:12:06.123Z,97897.19
2019-03-31T08:14:33.355Z,97893.34
2019-03-31T08:17:00.635Z,97893.12
2019-03-31T08:19:27.887Z,97891.55
2019-03-31T08:21:55.143Z,97891.38
2019-03-31T08:24:22.596Z,97894.18
2019-03-31T08:26:49.876Z,97891.93
2019-03-31T08:29:17.113Z,97893.50
2019-03-31T08:31:44.540Z,97899.17
2019-03-31T08:34:11.744Z,97899.61
2019-03-31T08:36:38.993Z,97894.20
2019-03-31T08:39:07.465Z,97891.91
2019-03-31T08:41:34.663Z,97887.63
2019-03-31T08:44:02.015Z,97894.62
2019-03-31T08:46:29.293Z,97894.94
2019-03-31T08:48:56.529Z,97897.01
2019-03-31T08:51:23.928Z,97893.62
2019-03-31T08:53:51.045Z,97893.95
2019-03-31T08:56:18.238Z,97891.09
2019-03-31T08:58:45.429Z,97890.14
2019-03-31T09:01:14.754Z,97890.48
2019-03-31T09:03:41.881Z,97882.89
2019-03-31T09:06:09.274Z,97897.67
2019-03-31T09:08:36.460Z,97896.74
2019-03-31T09:11:03.684Z,97896.98
2019-03-31T09:13:30.769Z,97898.33
2019-03-31T09:15:58.111Z,97902.02
2019-03-31T09:18:25.202Z,97892.61
2019-03-31T09:20:52.447Z,97893.22
2019-03-31T09:23:19.769Z,97891.26
2019-03-31T09:25:47.753Z,97893.60
2019-03-31T09:28:15.337Z,97886.62
2019-03-31T09:30:43.273Z,97884.06
2019-03-31T09:33:10.463Z,97887.02
2019-03-31T09:35:37.857Z,97886.70
2019-03-31T09:38:05.194Z,97888.62
2019-03-31T09:40:32.553Z,97881.02
2019-03-31T09:42:59.680Z,97879.33
2019-03-31T09:45:26.968Z,97878.23
2019-03-31T09:47:54.068Z,97878.62
2019-03-31T09:50:21.342Z,97880.77
2019-03-31T09:52:48.621Z,97873.48
2019-03-31T09:55:15.815Z,97870.30
2019-03-31T09:57:42.899Z,97872.98
2019-03-31T10:00:10.941Z,97870.02
2019-03-31T10:02:38.383Z,97873.53
2019-03-31T10:05:06.117Z,97870.91
2019-03-31T10:07:33.622Z,97873.39
2019-03-31T10:10:01.064Z,97860.45
2019-03-31T10:12:28.235Z,97861.08
2019-03-31T10:14:55.508Z,97859.84
2019-03-31T10:17:22.692Z,97855.98
2019-03-31T10:19:49.875Z,97850.17
2019-03-31T10:22:17.135Z,97844.99
2019-03-31T10:24:44.200Z,97850.16
2019-03-31T10:27:11.260Z,97842.55
2019-03-31T10:29:38.653Z,97840.45
2019-03-31T10:32:05.819Z,97840.59
2019-03-31T10:34:32.932Z,97838.29
2019-03-31T10:37:00.357Z,97830.77
2019-03-31T10:39:27.535Z,97832.28
2019-03-31T10:41:54.623Z,97828.30
2019-03-31T10:44:21.814Z,97825.80
2019-03-31T10:46:49.133Z,97820.89
2019-03-31T10:49:16.338Z,97819.14
2019-03-31T10:51:43.548Z,97819.53
2019-03-31T10:54:10.711Z,97817.50
2019-03-31T10:56:37.901Z,97809.78
2019-03-31T10:59:05.093Z,97811.77
2019-03-31T11:01:32.169Z,97806.56
2019-03-31T11:03:59.360Z,97801.86
2019-03-31T11:06:26.576Z,97799.33
2019-03-31T11:08:53.731Z,97800.20
2019-03-31T11:11:20.918Z,97799.55
2019-03-31T11:13:48.012Z,97793.33
2019-03-31T11:16:15.236Z,97791.48
2019-03-31T11:18:42.452Z,97791.03
2019-03-31T11:21:15.864Z,97789.34
2019-03-31T11:23:43.138Z,97785.80
2019-03-31T11:26:10.481Z,97783.23
2019-03-31T11:28:37.548Z,97776.82
2019-03-31T11:31:04.724Z,97779.20
2019-03-31T11:33:31.796Z,97776.31
2019-03-31T11:35:58.999Z,97768.91
2019-03-31T11:38:26.125Z,97774.28
2019-03-31T11:40:53.303Z,97774.40
2019-03-31T11:43:20.631Z,97773.48
2019-03-31T11:45:47.805Z,97756.75
2019-03-31T11:48:15.039Z,97768.06
2019-03-31T11:50:42.264Z,97766.11
2019-03-31T11:53:09.569Z,97763.52
2019-03-31T11:55:36.744Z,97768.73
2019-03-31T11:58:04.280Z,97754.44
2019-03-31T12:00:34.671Z,97752.35
2019-03-31T12:03:01.989Z,97758.80
2019-03-31T12:05:29.296Z,97758.20
2019-03-31T12:07:56.604Z,97753.81
2019-03-31T12:10:23.876Z,97747.51
2019-03-31T12:12:51.158Z,97743.70
2019-03-31T12:15:18.338Z,97745.44
2019-03-31T12:17:45.625Z,97743.13
2019-03-31T12:20:13.006Z,97738.08
2019-03-31T12:22:41.287Z,97736.46
2019-03-31T12:25:08.581Z,97733.84
2019-03-31T12:27:35.829Z,97734.86
2019-03-31T12:30:03.556Z,97740.62
2019-03-31T12:32:30.741Z,97732.63
2019-03-31T12:34:57.921Z,97730.52
2019-03-31T12:37:24.996Z,97725.39
2019-03-31T12:39:52.200Z,97722.91
2019-03-31T12:42:19.454Z,97718.58
2019-03-31T12:44:46.631Z,97709.84
2019-03-31T12:47:13.895Z,97710.90
2019-03-31T12:49:41.136Z,97703.25
2019-03-31T12:52:08.295Z,97700.28
2019-03-31T12:54:35.491Z,97695.35
2019-03-31T12:57:02.705Z,97690.97
2019-03-31T12:59:29.792Z,97691.71
2019-03-31T13:01:57.097Z,97692.93
2019-03-31T13:04:24.293Z,97691.98
2019-03-31T13:06:51.463Z,97687.97
2019-03-31T13:09:18.637Z,97688.64
2019-03-31T13:11:45.841Z,97691.13
2019-03-31T13:14:13.016Z,97687.22
2019-03-31T13:16:40.409Z,97683.59
2019-03-31T13:19:07.488Z,97676.39
2019-03-31T13:21:34.617Z,97668.66
2019-03-31T13:24:01.892Z,97666.79
2019-03-31T13:26:29.087Z,97665.66
2019-03-31T13:28:56.455Z,97664.05
2019-03-31T13:31:23.939Z,97653.81
2019-03-31T13:33:51.659Z,97658.52
2019-03-31T13:36:18.805Z,97658.06
2019-03-31T13:38:45.972Z,97653.69
2019-03-31T13:41:13.145Z,97651.27
2019-03-31T13:43:40.331Z,97653.69
2019-03-31T13:46:07.447Z,97647.95
2019-03-31T13:48:34.728Z,97647.70
2019-03-31T13:51:01.923Z,97641.09
2019-03-31T13:53:29.178Z,97640.52
2019-03-31T13:55:56.380Z,97636.83
2019-03-31T13:58:23.991Z,97638.42
2019-03-31T14:00:52.440Z,97643.74
2019-03-31T14:03:19.528Z,97642.34
2019-03-31T14:05:46.715Z,97639.92
2019-03-31T14:08:24.996Z,97645.34
2019-03-31T14:10:43.090Z,97637.63
2019-03-31T14:13:10.271Z,97642.13
2019-03-31T14:15:37.453Z,97635.89
2019-03-31T14:18:04.769Z,97635.52
2019-03-31T14:20:32.243Z,97639.92
2019-03-31T14:22:59.431Z,97636.02
2019-03-31T14:25:26.540Z,97636.15
2019-03-31T14:27:53.730Z,97630.36
2019-03-31T14:30:21.526Z,97631.84
2019-03-31T14:32:48.743Z,97625.83
2019-03-31T14:35:16.011Z,97624.27
2019-03-31T14:37:44.012Z,97622.05
2019-03-31T14:40:11.408Z,97617.72
2019-03-31T14:42:38.739Z,97612.27
2019-03-31T14:45:30.267Z,97608.75
2019-03-31T14:47:59.380Z,97603.97
2019-03-31T14:50:31.349Z,97599.40
2019-03-31T14:52:58.634Z,97593.92
2019-03-31T14:55:25.699Z,97594.73
2019-03-31T14:57:52.899Z,97594.86
2019-03-31T15:00:20.200Z,97593.37
2019-03-31T15:02:47.449Z,97592.66
2019-03-31T15:05:14.781Z,97595.36
2019-03-31T15:07:42.111Z,97592.72
2019-03-31T15:10:09.304Z,97590.81
2019-03-31T15:12:36.380Z,97587.95
2019-03-31T15:15:03.827Z,97590.84
2019-03-31T15:17:31.011Z,97589.00
2019-03-31T15:19:58.196Z,97585.23
2019-03-31T15:22:25.374Z,97585.70
2019-03-31T15:24:52.580Z,97583.67
2019-03-31T15:27:19.805Z,97581.18
2019-03-31T15:29:46.886Z,97574.68
2019-03-31T15:32:14.104Z,97574.67
2019-03-31T15:34:41.279Z,97563.55
2019-03-31T15:37:08.557Z,97568.39
2019-03-31T15:39:36.108Z,97570.00
2019-03-31T15:42:03.338Z,97567.36
2019-03-31T15:44:30.554Z,97574.07
2019-03-31T15:46:57.664Z,97570.70
2019-03-31T15:49:24.723Z,97575.34
2019-03-31T15:51:51.926Z,97569.47
2019-03-31T15:54:19.178Z,97570.96
2019-03-31T15:56:46.354Z,97580.30
2019-03-31T15:59:13.982Z,97580.41
2019-03-31T16:01:41.349Z,97580.25
2019-03-31T16:04:08.601Z,97579.44
2019-03-31T16:06:35.924Z,97579.72
2019-03-31T16:09:05.881Z,97573.73
2019-03-31T16:11:32.397Z,97589.23
2019-03-31T16:13:59.036Z,97577.92
2019-03-31T16:16:25.568Z,97580.76
2019-03-31T16:18:52.265Z,97585.33
2019-03-31T16:21:18.963Z,97589.70
2019-03-31T16:23:45.513Z,97584.69
2019-03-31T16:26:12.142Z,97584.19
2019-03-31T16:28:38.728Z,97580.20
2019-03-31T16:31:05.469Z,97588.33
2019-03-31T16:33:32.115Z,97582.10
2019-03-31T16:35:58.913Z,97580.88
2019-03-31T16:38:26.073Z,97584.24
2019-03-31T16:40:52.750Z,97584.40
2019-03-31T16:43:20.197Z,97583.24
2019-03-31T16:45:46.866Z,97582.86
2019-03-31T16:48:13.814Z,97583.70
2019-03-31T16:50:40.637Z,97582.97
2019-03-31T16:53:07.320Z,97581.53
2019-03-31T16:55:34.064Z,97579.05
2019-03-31T16:58:00.622Z,97580.84
2019-03-31T17:00:27.251Z,97582.16
2019-03-31T17:02:53.995Z,97582.12
2019-03-31T17:05:22.186Z,97588.05
2019-03-31T17:07:48.943Z,97584.42
2019-03-31T17:10:15.578Z,97579.66
2019-03-31T17:12:42.260Z,97583.84
2019-03-31T17:15:09.056Z,97586.33
2019-03-31T17:17:35.796Z,97586.82
2019-03-31T17:20:03.161Z,97587.34
2019-03-31T17:22:29.702Z,97588.23
2019-03-31T17:24:56.297Z,97593.44
2019-03-31T17:27:22.876Z,97596.27
2019-03-31T17:29:49.610Z,97595.94
2019-03-31T17:32:16.437Z,97594.02
2019-03-31T17:34:43.044Z,97595.86
2019-03-31T17:37:09.807Z,97598.03
2019-03-31T17:39:36.447Z,97595.98
2019-03-31T17:42:03.158Z,97595.88
2019-03-31T17:44:30.858Z,97599.98
2019-03-31T17:46:57.590Z,97599.17
2019-03-31T17:49:24.453Z,97602.76
2019-03-31T17:51:51.151Z,97605.96
2019-03-31T17:54:17.739Z,97611.51
2019-03-31T17:56:44.432Z,97607.42
2019-03-31T17:59:10.973Z,97616.41
2019-03-31T18:01:37.755Z,97623.23
2019-03-31T18:04:04.370Z,97619.32
2019-03-31T18:06:31.068Z,97620.95
2019-03-31T18:08:57.799Z,97621.95
2019-03-31T18:11:24.579Z,97616.96
2019-03-31T18:13:51.155Z,97626.98
2019-03-31T18:16:17.781Z,97632.02
2019-03-31T18:18:44.425Z,97634.16
2019-03-31T18:21:11.085Z,97645.05
2019-03-31T18:23:37.774Z,97646.72
2019-03-31T18:26:04.299Z,97647.45
2019-03-31T18:28:30.850Z,97650.59
2019-03-31T18:30:57.382Z,97648.27
2019-03-31T18:33:23.956Z,97652.53
2019-03-31T18:35:50.649Z,97654.83
2019-03-31T18:38:17.292Z,97659.63
2019-03-31T18:40:43.953Z,97660.29
2019-03-31T18:43:10.726Z,97666.68
2019-03-31T18:45:37.268Z,97674.48
2019-03-31T18:48:04.053Z,97677.96
2019-03-31T18:50:30.589Z,97682.39
2019-03-31T18:52:57.344Z,97677.63
2019-03-31T18:55:49.299Z,97687.29
2019-03-31T18:58:25.015Z,97687.59
2019-03-31T19:01:01.743Z,97696.02
2019-03-31T19:03:54.233Z,97702.39
2019-03-31T19:06:58.517Z,97701.11
2019-03-31T19:09:38.207Z,97704.79
2019-03-31T19:12:24.605Z,97709.01
2019-03-31T19:15:08.620Z,97714.05
2019-03-31T19:17:53.672Z,97714.65
2019-03-31T19:20:38.568Z,97713.37
2019-03-31T19:23:42.734Z,97723.83
2019-03-31T19:26:27.923Z,97733.43
2019-03-31T19:29:07.724Z,97736.20
2019-03-31T19:32:03.035Z,97735.24
2019-03-31T19:35:01.921Z,97743.81
2019-03-31T19:38:03.408Z,97744.92
2019-03-31T19:41:03.016Z,97752.64
2019-03-31T19:43:35.341Z,97749.72
2019-03-31T19:46:21.617Z,97757.21
2019-03-31T19:49:17.119Z,97755.39
2019-03-31T19:52:06.421Z,97761.45
2019-03-31T19:54:48.472Z,97754.95
2019-03-31T19:57:21.986Z,97765.65
2019-03-31T20:00:17.804Z,97771.73
2019-03-31T20:03:04.151Z,97776.95
2019-03-31T20:05:48.976Z,97776.50
2019-03-31T20:08:24.689Z,97773.05
2019-03-31T20:11:05.084Z,97773.90
2019-03-31T20:13:47.066Z,97779.48
2019-03-31T20:16:27.157Z,97781.69
2019-03-31T20:19:12.011Z,97786.07
2019-03-31T20:21:44.535Z,97790.48
2019-03-31T20:24:29.470Z,97791.09
2019-03-31T20:27:18.568Z,97796.58
2019-03-31T20:30:07.910Z,97798.80
2019-03-31T20:33:01.065Z,97796.98
2019-03-31T20:35:47.270Z,97792.41
2019-03-31T20:38:42.736Z,97785.33
2019-03-31T20:41:35.183Z,97791.91
2019-03-31T20:44:02.033Z,97796.34
2019-03-31T20:46:28.536Z,97795.39
2019-03-31T20:48:55.136Z,97804.67
2019-03-31T20:51:21.804Z,97799.52
2019-03-31T20:53:48.594Z,97804.41
2019-03-31T20:56:15.276Z,97801.45
2019-03-31T20:58:42.013Z,97812.94
2019-03-31T21:01:10.236Z,97818.95
2019-03-31T21:03:37.162Z,97820.86
2019-03-31T21:06:03.874Z,97823.05
2019-03-31T21:08:30.402Z,97826.63
2019-03-31T21:10:57.059Z,97836.23
2019-03-31T21:13:23.851Z,97838.73
2019-03-31T21:15:51.534Z,97840.64
2019-03-31T21:18:18.047Z,97837.66
2019-03-31T21:20:44.773Z,97848.33
2019-03-31T21:23:11.451Z,97846.70
2019-03-31T21:25:38.190Z,97845.95
2019-03-31T21:28:04.821Z,97843.54
2019-03-31T21:30:31.508Z,97845.50
2019-03-31T21:32:58.211Z,97849.03
2019-03-31T21:35:25.018Z,97848.80
2019-03-31T21:37:51.825Z,97850.70
2019-03-31T21:40:18.544Z,97844.46
2019-03-31T21:42:45.185Z,97842.63
2019-03-31T21:45:12.028Z,97851.09
2019-03-31T21:47:38.595Z,97848.92
2019-03-31T21:50:05.625Z,97850.58
2019-03-31T21:52:32.206Z,97851.14
2019-03-31T21:54:58.806Z,97853.61
2019-03-31T21:57:25.437Z,97854.42
2019-03-31T21:59:52.020Z,97852.80
2019-03-31T22:02:18.803Z,97852.31
2019-03-31T22:04:45.346Z,97857.80
2019-03-31T22:07:12.964Z,97860.53
2019-03-31T22:09:39.535Z,97857.83
2019-03-31T22:12:06.059Z,97857.05
2019-03-31T22:14:32.710Z,97855.70
2019-03-31T22:16:59.231Z,97859.80
2019-03-31T22:19:25.853Z,97860.63
2019-03-31T22:21:52.572Z,97863.89
2019-03-31T22:24:19.087Z,97865.27
2019-03-31T22:26:45.629Z,97853.31
2019-03-31T22:29:12.136Z,97854.72
2019-03-31T22:31:38.792Z,97858.53
2019-03-31T22:34:05.444Z,97861.52
2019-03-31T22:36:32.013Z,97850.66
2019-03-31T22:38:58.578Z,97859.91
2019-03-31T22:41:25.268Z,97849.58
2019-03-31T22:43:52.013Z,97849.83
2019-03-31T22:46:18.537Z,97848.23
2019-03-31T22:48:45.171Z,97851.23
2019-03-31T22:51:11.812Z,97843.63
2019-03-31T22:53:38.658Z,97843.64
2019-03-31T22:56:05.341Z,97845.00
2019-03-31T22:58:32.064Z,97839.84
2019-03-31T23:00:58.827Z,97842.31
2019-03-31T23:03:25.527Z,97845.30
2019-03-31T23:05:52.167Z,97848.84
2019-03-31T23:08:18.683Z,97848.02
2019-03-31T23:10:45.420Z,97839.06
2019-03-31T23:13:11.933Z,97841.23
2019-03-31T23:15:38.652Z,97840.96
2019-03-31T23:18:05.144Z,97839.33
2019-03-31T23:20:32.667Z,97839.63
2019-03-31T23:22:59.164Z,97832.84
2019-03-31T23:25:25.693Z,97837.72
2019-03-31T23:27:52.209Z,97842.06
2019-03-31T23:30:18.745Z,97845.87
2019-03-31T23:32:45.293Z,97835.27
2019-03-31T23:35:11.833Z,97833.66
2019-03-31T23:37:38.360Z,97839.63
2019-03-31T23:40:05.376Z,97837.18
2019-03-31T23:42:31.919Z,97831.75
2019-03-31T23:44:58.532Z,97834.72
2019-03-31T23:47:25.198Z,97827.11
2019-03-31T23:49:51.741Z,97822.23
2019-03-31T23:52:18.436Z,97828.20
2019-03-31T23:54:45.052Z,97823.04
2019-03-31T23:57:11.564Z,97829.85
2019-03-31T23:59:38.107Z,97824.41
